sensor_id;sensor_type;location;lat;lon;timestamp;temperature;humidity
21849;DHT22;11089;49.852;19.700;2023-06-10T00:01:40;17.70;99.90
21849;DHT22;11089;49.852;19.700;2023-06-10T00:04:41;17.60;99.90
21849;DHT22;11089;49.852;19.700;2023-06-10T00:07:42;17.60;99.90
21849;DHT22;11089;49.852;19.700;2023-06-10T00:10:43;17.70;99.90
21849;DHT22;11089;49.852;19.700;2023-06-10T00:13:44;17.70;99.90
21849;DHT22;11089;49.852;19.700;2023-06-10T00:16:45;17.60;99.90
21849;DHT22;11089;49.852;19.700;2023-06-10T00:19:46;17.50;99.90
21849;DHT22;11089;49.852;19.700;2023-06-10T00:22:47;17.60;99.90
21849;DHT22;11089;49.852;19.700;2023-06-10T00:25:49;17.50;99.90
21849;DHT22;11089;49.852;19.700;2023-06-10T00:28:50;17.50;99.90
21849;DHT22;11089;49.852;19.700;2023-06-10T00:31:51;17.50;99.90
21849;DHT22;11089;49.852;19.700;2023-06-10T00:34:54;17.50;99.90
21849;DHT22;11089;49.852;19.700;2023-06-10T00:37:55;17.60;99.90
21849;DHT22;11089;49.852;19.700;2023-06-10T00:40:56;17.60;99.90
21849;DHT22;11089;49.852;19.700;2023-06-10T00:43:57;17.60;99.90
21849;DHT22;11089;49.852;19.700;2023-06-10T00:46:58;17.60;99.90
21849;DHT22;11089;49.852;19.700;2023-06-10T00:49:59;17.50;99.90
21849;DHT22;11089;49.852;19.700;2023-06-10T00:53:00;17.50;99.90
21849;DHT22;11089;49.852;19.700;2023-06-10T00:56:02;17.50;99.90
21849;DHT22;11089;49.852;19.700;2023-06-10T00:59:03;17.50;99.90
21849;DHT22;11089;49.852;19.700;2023-06-10T01:02:04;17.60;99.90
21849;DHT22;11089;49.852;19.700;2023-06-10T01:05:06;17.50;99.90
21849;DHT22;11089;49.852;19.700;2023-06-10T01:08:27;17.50;99.90
21849;DHT22;11089;49.852;19.700;2023-06-10T01:14:48;17.60;99.90
21849;DHT22;11089;49.852;19.700;2023-06-10T01:18:00;17.60;99.90
21849;DHT22;11089;49.852;19.700;2023-06-10T01:21:02;17.60;99.90
21849;DHT22;11089;49.852;19.700;2023-06-10T01:24:04;17.60;99.90
21849;DHT22;11089;49.852;19.700;2023-06-10T01:27:12;17.60;99.90
21849;DHT22;11089;49.852;19.700;2023-06-10T01:30:17;17.50;99.90
21849;DHT22;11089;49.852;19.700;2023-06-10T01:33:29;17.60;99.90
21849;DHT22;11089;49.852;19.700;2023-06-10T01:36:32;17.50;99.90
21849;DHT22;11089;49.852;19.700;2023-06-10T01:39:34;17.50;99.90
21849;DHT22;11089;49.852;19.700;2023-06-10T01:42:36;17.40;99.90
21849;DHT22;11089;49.852;19.700;2023-06-10T01:45:37;17.40;99.90
21849;DHT22;11089;49.852;19.700;2023-06-10T01:48:38;17.50;99.90
21849;DHT22;11089;49.852;19.700;2023-06-10T01:51:40;17.40;99.90
21849;DHT22;11089;49.852;19.700;2023-06-10T01:54:41;17.40;99.90
21849;DHT22;11089;49.852;19.700;2023-06-10T01:57:41;17.30;99.90
21849;DHT22;11089;49.852;19.700;2023-06-10T02:00:42;17.40;99.90
21849;DHT22;11089;49.852;19.700;2023-06-10T02:03:43;17.40;99.90
21849;DHT22;11089;49.852;19.700;2023-06-10T02:06:44;17.40;99.90
21849;DHT22;11089;49.852;19.700;2023-06-10T02:09:46;17.50;99.90
21849;DHT22;11089;49.852;19.700;2023-06-10T02:12:47;17.50;99.90
21849;DHT22;11089;49.852;19.700;2023-06-10T02:15:47;17.40;99.90
21849;DHT22;11089;49.852;19.700;2023-06-10T02:18:48;17.40;99.90
21849;DHT22;11089;49.852;19.700;2023-06-10T02:21:49;17.40;99.90
21849;DHT22;11089;49.852;19.700;2023-06-10T02:24:51;17.40;99.90
21849;DHT22;11089;49.852;19.700;2023-06-10T02:27:52;17.30;99.90
21849;DHT22;11089;49.852;19.700;2023-06-10T02:30:53;17.30;99.90
21849;DHT22;11089;49.852;19.700;2023-06-10T02:33:54;17.40;99.90
21849;DHT22;11089;49.852;19.700;2023-06-10T02:36:55;17.30;99.90
21849;DHT22;11089;49.852;19.700;2023-06-10T02:39:56;17.30;99.90
21849;DHT22;11089;49.852;19.700;2023-06-10T02:42:57;17.40;99.90
21849;DHT22;11089;49.852;19.700;2023-06-10T02:45:59;17.30;99.90
21849;DHT22;11089;49.852;19.700;2023-06-10T02:49:00;17.30;99.90
21849;DHT22;11089;49.852;19.700;2023-06-10T02:52:02;17.20;99.90
21849;DHT22;11089;49.852;19.700;2023-06-10T02:55:04;17.30;99.90
21849;DHT22;11089;49.852;19.700;2023-06-10T02:58:05;17.30;99.90
21849;DHT22;11089;49.852;19.700;2023-06-10T03:01:06;17.30;99.90
21849;DHT22;11089;49.852;19.700;2023-06-10T03:04:07;17.40;99.90
21849;DHT22;11089;49.852;19.700;2023-06-10T03:07:08;17.40;99.90
21849;DHT22;11089;49.852;19.700;2023-06-10T03:10:09;17.40;99.90
21849;DHT22;11089;49.852;19.700;2023-06-10T03:13:10;17.40;99.90
21849;DHT22;11089;49.852;19.700;2023-06-10T03:16:11;17.50;99.90
21849;DHT22;11089;49.852;19.700;2023-06-10T03:19:13;17.50;99.90
21849;DHT22;11089;49.852;19.700;2023-06-10T03:22:15;17.40;99.90
21849;DHT22;11089;49.852;19.700;2023-06-10T03:25:17;17.50;99.90
21849;DHT22;11089;49.852;19.700;2023-06-10T03:28:18;17.40;99.90
21849;DHT22;11089;49.852;19.700;2023-06-10T03:31:19;17.40;99.90
21849;DHT22;11089;49.852;19.700;2023-06-10T03:34:20;17.50;99.90
21849;DHT22;11089;49.852;19.700;2023-06-10T03:37:21;17.50;99.90
21849;DHT22;11089;49.852;19.700;2023-06-10T03:40:21;17.50;99.90
21849;DHT22;11089;49.852;19.700;2023-06-10T03:43:22;17.50;99.90
21849;DHT22;11089;49.852;19.700;2023-06-10T03:46:23;17.60;99.90
21849;DHT22;11089;49.852;19.700;2023-06-10T03:49:24;17.60;99.90
21849;DHT22;11089;49.852;19.700;2023-06-10T03:52:27;17.60;99.90
21849;DHT22;11089;49.852;19.700;2023-06-10T03:55:28;17.60;99.90
21849;DHT22;11089;49.852;19.700;2023-06-10T03:58:29;17.50;99.90
21849;DHT22;11089;49.852;19.700;2023-06-10T04:01:30;17.50;99.90
21849;DHT22;11089;49.852;19.700;2023-06-10T04:04:32;17.60;99.90
21849;DHT22;11089;49.852;19.700;2023-06-10T04:07:33;17.50;99.90
21849;DHT22;11089;49.852;19.700;2023-06-10T04:10:35;17.60;99.90
21849;DHT22;11089;49.852;19.700;2023-06-10T04:13:36;17.50;99.90
21849;DHT22;11089;49.852;19.700;2023-06-10T04:16:37;17.60;99.90
21849;DHT22;11089;49.852;19.700;2023-06-10T04:19:39;17.50;99.90
21849;DHT22;11089;49.852;19.700;2023-06-10T04:22:40;17.50;99.90
21849;DHT22;11089;49.852;19.700;2023-06-10T04:25:41;17.60;99.90
21849;DHT22;11089;49.852;19.700;2023-06-10T04:28:43;17.60;99.90
21849;DHT22;11089;49.852;19.700;2023-06-10T04:31:44;17.60;99.90
21849;DHT22;11089;49.852;19.700;2023-06-10T04:34:48;17.60;99.90
21849;DHT22;11089;49.852;19.700;2023-06-10T04:37:49;17.60;99.90
21849;DHT22;11089;49.852;19.700;2023-06-10T04:40:50;17.60;99.90
21849;DHT22;11089;49.852;19.700;2023-06-10T04:43:51;17.60;99.90
21849;DHT22;11089;49.852;19.700;2023-06-10T04:46:52;17.60;99.90
21849;DHT22;11089;49.852;19.700;2023-06-10T04:49:53;17.70;99.90
21849;DHT22;11089;49.852;19.700;2023-06-10T04:52:54;17.80;99.90
21849;DHT22;11089;49.852;19.700;2023-06-10T04:55:57;17.90;99.90
21849;DHT22;11089;49.852;19.700;2023-06-10T04:58:59;18.00;99.90
21849;DHT22;11089;49.852;19.700;2023-06-10T05:02:00;18.00;99.90
21849;DHT22;11089;49.852;19.700;2023-06-10T05:05:01;18.00;99.90
21849;DHT22;11089;49.852;19.700;2023-06-10T05:08:02;18.10;99.90
21849;DHT22;11089;49.852;19.700;2023-06-10T05:11:03;18.10;99.90
21849;DHT22;11089;49.852;19.700;2023-06-10T05:14:04;18.00;99.90
21849;DHT22;11089;49.852;19.700;2023-06-10T05:17:06;18.00;99.90
21849;DHT22;11089;49.852;19.700;2023-06-10T05:20:07;18.00;99.90
21849;DHT22;11089;49.852;19.700;2023-06-10T05:23:08;18.00;99.90
21849;DHT22;11089;49.852;19.700;2023-06-10T05:26:09;17.90;99.90
21849;DHT22;11089;49.852;19.700;2023-06-10T05:29:11;18.00;99.90
21849;DHT22;11089;49.852;19.700;2023-06-10T05:32:12;18.00;99.90
21849;DHT22;11089;49.852;19.700;2023-06-10T05:35:13;18.00;99.90
21849;DHT22;11089;49.852;19.700;2023-06-10T05:38:14;17.90;99.90
21849;DHT22;11089;49.852;19.700;2023-06-10T05:41:15;17.90;99.90
21849;DHT22;11089;49.852;19.700;2023-06-10T05:44:16;17.90;99.90
21849;DHT22;11089;49.852;19.700;2023-06-10T05:47:17;17.90;99.90
21849;DHT22;11089;49.852;19.700;2023-06-10T05:50:18;17.80;99.90
21849;DHT22;11089;49.852;19.700;2023-06-10T05:53:19;17.80;99.90
21849;DHT22;11089;49.852;19.700;2023-06-10T05:56:20;17.90;99.90
21849;DHT22;11089;49.852;19.700;2023-06-10T05:59:22;17.90;99.90
21849;DHT22;11089;49.852;19.700;2023-06-10T06:02:24;17.90;99.90
21849;DHT22;11089;49.852;19.700;2023-06-10T06:05:25;18.00;99.90
21849;DHT22;11089;49.852;19.700;2023-06-10T06:08:26;17.90;99.90
21849;DHT22;11089;49.852;19.700;2023-06-10T06:11:27;18.00;99.90
21849;DHT22;11089;49.852;19.700;2023-06-10T06:14:31;18.00;99.90
21849;DHT22;11089;49.852;19.700;2023-06-10T06:17:33;18.00;99.90
21849;DHT22;11089;49.852;19.700;2023-06-10T06:20:34;17.90;99.90
21849;DHT22;11089;49.852;19.700;2023-06-10T06:23:35;18.00;99.90
21849;DHT22;11089;49.852;19.700;2023-06-10T06:26:36;18.10;99.90
21849;DHT22;11089;49.852;19.700;2023-06-10T06:29:36;18.10;99.90
21849;DHT22;11089;49.852;19.700;2023-06-10T06:32:37;18.10;99.90
21849;DHT22;11089;49.852;19.700;2023-06-10T06:35:38;18.10;99.90
21849;DHT22;11089;49.852;19.700;2023-06-10T06:38:40;18.10;99.90
21849;DHT22;11089;49.852;19.700;2023-06-10T06:41:41;18.20;99.90
21849;DHT22;11089;49.852;19.700;2023-06-10T06:44:43;18.20;99.90
21849;DHT22;11089;49.852;19.700;2023-06-10T06:47:43;18.20;99.90
21849;DHT22;11089;49.852;19.700;2023-06-10T06:50:44;18.20;99.90
21849;DHT22;11089;49.852;19.700;2023-06-10T06:53:45;18.10;99.90
21849;DHT22;11089;49.852;19.700;2023-06-10T06:56:47;18.00;99.90
21849;DHT22;11089;49.852;19.700;2023-06-10T06:59:47;18.00;99.90
21849;DHT22;11089;49.852;19.700;2023-06-10T07:02:48;18.00;99.90
21849;DHT22;11089;49.852;19.700;2023-06-10T07:05:49;18.00;99.90
21849;DHT22;11089;49.852;19.700;2023-06-10T07:08:51;18.00;99.90
21849;DHT22;11089;49.852;19.700;2023-06-10T07:11:52;18.00;99.90
21849;DHT22;11089;49.852;19.700;2023-06-10T07:14:53;18.00;99.90
21849;DHT22;11089;49.852;19.700;2023-06-10T07:17:54;18.10;99.90
21849;DHT22;11089;49.852;19.700;2023-06-10T07:20:56;18.20;99.90
21849;DHT22;11089;49.852;19.700;2023-06-10T07:23:57;18.30;99.90
21849;DHT22;11089;49.852;19.700;2023-06-10T07:26:57;18.30;99.90
21849;DHT22;11089;49.852;19.700;2023-06-10T07:29:58;18.30;99.90
21849;DHT22;11089;49.852;19.700;2023-06-10T07:33:01;18.30;99.90
21849;DHT22;11089;49.852;19.700;2023-06-10T07:36:02;18.30;99.90
21849;DHT22;11089;49.852;19.700;2023-06-10T07:39:04;18.40;99.90
21849;DHT22;11089;49.852;19.700;2023-06-10T07:42:05;18.60;99.90
21849;DHT22;11089;49.852;19.700;2023-06-10T07:45:07;18.70;99.90
21849;DHT22;11089;49.852;19.700;2023-06-10T07:48:08;18.90;99.90
21849;DHT22;11089;49.852;19.700;2023-06-10T07:51:09;19.00;43.30
21849;DHT22;11089;49.852;19.700;2023-06-10T07:54:10;19.10;14.10
21849;DHT22;11089;49.852;19.700;2023-06-10T07:57:13;19.10;1.00
21849;DHT22;11089;49.852;19.700;2023-06-10T08:00:14;19.20;1.00
21849;DHT22;11089;49.852;19.700;2023-06-10T08:03:15;19.30;1.00
21849;DHT22;11089;49.852;19.700;2023-06-10T08:06:16;19.40;1.00
21849;DHT22;11089;49.852;19.700;2023-06-10T08:09:18;19.40;1.00
21849;DHT22;11089;49.852;19.700;2023-06-10T08:12:19;19.50;1.00
21849;DHT22;11089;49.852;19.700;2023-06-10T08:15:20;19.60;99.90
21849;DHT22;11089;49.852;19.700;2023-06-10T08:18:21;19.70;99.90
21849;DHT22;11089;49.852;19.700;2023-06-10T08:21:22;19.70;1.00
21849;DHT22;11089;49.852;19.700;2023-06-10T08:24:23;19.70;1.00
21849;DHT22;11089;49.852;19.700;2023-06-10T08:27:24;19.70;99.90
21849;DHT22;11089;49.852;19.700;2023-06-10T08:30:25;19.70;1.00
21849;DHT22;11089;49.852;19.700;2023-06-10T08:33:26;19.70;1.00
21849;DHT22;11089;49.852;19.700;2023-06-10T08:36:27;19.70;99.90
21849;DHT22;11089;49.852;19.700;2023-06-10T08:39:28;19.80;1.00
21849;DHT22;11089;49.852;19.700;2023-06-10T08:42:43;19.90;99.90
21849;DHT22;11089;49.852;19.700;2023-06-10T08:45:48;20.00;1.00
21849;DHT22;11089;49.852;19.700;2023-06-10T08:48:54;19.90;1.00
21849;DHT22;11089;49.852;19.700;2023-06-10T08:51:59;20.00;99.90
21849;DHT22;11089;49.852;19.700;2023-06-10T08:55:04;20.00;99.90
21849;DHT22;11089;49.852;19.700;2023-06-10T08:58:06;20.00;1.00
21849;DHT22;11089;49.852;19.700;2023-06-10T09:01:08;20.20;1.00
21849;DHT22;11089;49.852;19.700;2023-06-10T09:04:10;20.40;1.00
21849;DHT22;11089;49.852;19.700;2023-06-10T09:07:13;20.50;1.00
21849;DHT22;11089;49.852;19.700;2023-06-10T09:10:15;20.50;1.00
21849;DHT22;11089;49.852;19.700;2023-06-10T09:13:16;20.40;99.90
21849;DHT22;11089;49.852;19.700;2023-06-10T09:16:19;20.40;99.90
21849;DHT22;11089;49.852;19.700;2023-06-10T09:19:20;20.30;1.00
21849;DHT22;11089;49.852;19.700;2023-06-10T09:22:22;20.30;99.90
21849;DHT22;11089;49.852;19.700;2023-06-10T09:25:38;20.40;1.00
21849;DHT22;11089;49.852;19.700;2023-06-10T09:28:39;20.60;99.90
21849;DHT22;11089;49.852;19.700;2023-06-10T09:31:43;20.70;1.00
21849;DHT22;11089;49.852;19.700;2023-06-10T09:34:45;21.10;1.00
21849;DHT22;11089;49.852;19.700;2023-06-10T09:37:48;21.30;99.90
21849;DHT22;11089;49.852;19.700;2023-06-10T09:40:52;21.40;1.00
21849;DHT22;11089;49.852;19.700;2023-06-10T09:43:53;21.50;1.00
21849;DHT22;11089;49.852;19.700;2023-06-10T09:46:57;21.70;99.90
21849;DHT22;11089;49.852;19.700;2023-06-10T09:50:00;22.00;1.00
21849;DHT22;11089;49.852;19.700;2023-06-10T09:53:02;22.20;99.90
21849;DHT22;11089;49.852;19.700;2023-06-10T09:56:04;22.10;1.00
21849;DHT22;11089;49.852;19.700;2023-06-10T09:59:06;21.90;99.90
21849;DHT22;11089;49.852;19.700;2023-06-10T10:02:16;21.70;97.90
21849;DHT22;11089;49.852;19.700;2023-06-10T10:05:21;21.50;99.90
21849;DHT22;11089;49.852;19.700;2023-06-10T10:08:22;21.40;1.00
21849;DHT22;11089;49.852;19.700;2023-06-10T10:11:25;21.60;99.90
21849;DHT22;11089;49.852;19.700;2023-06-10T10:14:31;21.90;99.90
21849;DHT22;11089;49.852;19.700;2023-06-10T10:17:34;22.00;1.00
21849;DHT22;11089;49.852;19.700;2023-06-10T10:20:47;21.90;1.00
21849;DHT22;11089;49.852;19.700;2023-06-10T10:24:03;22.10;99.90
21849;DHT22;11089;49.852;19.700;2023-06-10T10:27:11;22.30;1.00
21849;DHT22;11089;49.852;19.700;2023-06-10T10:30:17;22.90;1.00
21849;DHT22;11089;49.852;19.700;2023-06-10T10:33:28;23.20;99.90
21849;DHT22;11089;49.852;19.700;2023-06-10T10:36:32;23.10;1.00
21849;DHT22;11089;49.852;19.700;2023-06-10T10:39:34;22.60;1.00
21849;DHT22;11089;49.852;19.700;2023-06-10T10:42:37;22.40;99.90
21849;DHT22;11089;49.852;19.700;2023-06-10T10:45:39;22.40;99.90
21849;DHT22;11089;49.852;19.700;2023-06-10T10:48:40;22.10;1.00
21849;DHT22;11089;49.852;19.700;2023-06-10T10:51:56;22.00;1.00
21849;DHT22;11089;49.852;19.700;2023-06-10T10:54:57;21.70;99.90
21849;DHT22;11089;49.852;19.700;2023-06-10T10:58:10;21.50;99.90
21849;DHT22;11089;49.852;19.700;2023-06-10T11:01:14;21.40;1.00
21849;DHT22;11089;49.852;19.700;2023-06-10T11:04:18;21.30;99.90
21849;DHT22;11089;49.852;19.700;2023-06-10T11:07:24;21.20;1.00
21849;DHT22;11089;49.852;19.700;2023-06-10T11:10:33;21.10;99.90
21849;DHT22;11089;49.852;19.700;2023-06-10T11:13:34;20.90;80.10
21849;DHT22;11089;49.852;19.700;2023-06-10T11:16:40;20.90;49.90
21849;DHT22;11089;49.852;19.700;2023-06-10T11:19:44;20.80;1.00
21849;DHT22;11089;49.852;19.700;2023-06-10T11:23:01;20.60;1.00
21849;DHT22;11089;49.852;19.700;2023-06-10T11:29:18;20.40;1.00
21849;DHT22;11089;49.852;19.700;2023-06-10T11:32:21;20.20;99.90
21849;DHT22;11089;49.852;19.700;2023-06-10T11:35:23;20.20;1.00
21849;DHT22;11089;49.852;19.700;2023-06-10T11:38:26;20.20;99.90
21849;DHT22;11089;49.852;19.700;2023-06-10T11:41:28;20.20;1.00
21849;DHT22;11089;49.852;19.700;2023-06-10T11:44:29;20.20;1.00
21849;DHT22;11089;49.852;19.700;2023-06-10T11:47:30;20.40;99.90
21849;DHT22;11089;49.852;19.700;2023-06-10T11:50:33;20.60;1.00
21849;DHT22;11089;49.852;19.700;2023-06-10T11:53:34;20.70;1.00
21849;DHT22;11089;49.852;19.700;2023-06-10T11:56:35;20.80;99.90
21849;DHT22;11089;49.852;19.700;2023-06-10T11:59:36;20.80;1.00
21849;DHT22;11089;49.852;19.700;2023-06-10T12:02:37;20.70;1.00
21849;DHT22;11089;49.852;19.700;2023-06-10T12:05:38;20.90;1.00
21849;DHT22;11089;49.852;19.700;2023-06-10T12:08:43;20.80;1.00
21849;DHT22;11089;49.852;19.700;2023-06-10T12:11:44;21.00;1.00
21849;DHT22;11089;49.852;19.700;2023-06-10T12:17:54;21.30;99.90
21849;DHT22;11089;49.852;19.700;2023-06-10T12:20:55;21.10;1.00
21849;DHT22;11089;49.852;19.700;2023-06-10T12:24:04;21.20;1.00
21849;DHT22;11089;49.852;19.700;2023-06-10T12:27:11;21.00;99.90
21849;DHT22;11089;49.852;19.700;2023-06-10T12:30:19;20.70;60.10
21849;DHT22;11089;49.852;19.700;2023-06-10T12:33:21;20.70;1.00
21849;DHT22;11089;49.852;19.700;2023-06-10T12:36:22;20.90;99.90
21849;DHT22;11089;49.852;19.700;2023-06-10T12:39:25;21.00;1.00
21849;DHT22;11089;49.852;19.700;2023-06-10T12:42:26;21.10;1.00
21849;DHT22;11089;49.852;19.700;2023-06-10T12:48:30;21.10;99.90
21849;DHT22;11089;49.852;19.700;2023-06-10T12:51:31;21.00;99.90
21849;DHT22;11089;49.852;19.700;2023-06-10T12:54:32;20.90;1.00
21849;DHT22;11089;49.852;19.700;2023-06-10T12:57:33;20.90;1.00
21849;DHT22;11089;49.852;19.700;2023-06-10T13:00:34;20.80;99.90
21849;DHT22;11089;49.852;19.700;2023-06-10T13:03:35;21.00;1.00
21849;DHT22;11089;49.852;19.700;2023-06-10T13:06:39;20.80;99.90
21849;DHT22;11089;49.852;19.700;2023-06-10T13:09:40;20.80;1.00
21849;DHT22;11089;49.852;19.700;2023-06-10T13:12:41;20.80;1.00
21849;DHT22;11089;49.852;19.700;2023-06-10T13:15:42;20.70;99.90
21849;DHT22;11089;49.852;19.700;2023-06-10T13:18:43;20.40;99.90
21849;DHT22;11089;49.852;19.700;2023-06-10T13:21:44;20.30;1.00
21849;DHT22;11089;49.852;19.700;2023-06-10T13:24:45;20.40;1.00
21849;DHT22;11089;49.852;19.700;2023-06-10T13:27:47;20.30;1.00
21849;DHT22;11089;49.852;19.700;2023-06-10T13:30:48;20.30;41.50
21849;DHT22;11089;49.852;19.700;2023-06-10T13:33:49;20.30;1.00
21849;DHT22;11089;49.852;19.700;2023-06-10T13:36:50;20.40;99.90
21849;DHT22;11089;49.852;19.700;2023-06-10T13:39:51;20.60;1.00
21849;DHT22;11089;49.852;19.700;2023-06-10T13:42:52;20.60;1.00
21849;DHT22;11089;49.852;19.700;2023-06-10T13:45:55;20.70;1.00
21849;DHT22;11089;49.852;19.700;2023-06-10T13:48:56;20.60;1.00
21849;DHT22;11089;49.852;19.700;2023-06-10T13:51:57;20.80;1.00
21849;DHT22;11089;49.852;19.700;2023-06-10T13:54:58;20.90;99.90
21849;DHT22;11089;49.852;19.700;2023-06-10T13:57:58;21.00;99.90
21849;DHT22;11089;49.852;19.700;2023-06-10T14:01:00;21.10;99.90
21849;DHT22;11089;49.852;19.700;2023-06-10T14:04:02;21.20;99.90
21849;DHT22;11089;49.852;19.700;2023-06-10T14:07:03;21.30;1.00
21849;DHT22;11089;49.852;19.700;2023-06-10T14:10:05;21.30;1.00
21849;DHT22;11089;49.852;19.700;2023-06-10T14:13:06;21.20;1.00
21849;DHT22;11089;49.852;19.700;2023-06-10T14:16:07;21.20;1.00
21849;DHT22;11089;49.852;19.700;2023-06-10T14:19:08;21.00;1.00
21849;DHT22;11089;49.852;19.700;2023-06-10T14:22:09;20.80;1.00
21849;DHT22;11089;49.852;19.700;2023-06-10T14:25:10;20.80;1.00
21849;DHT22;11089;49.852;19.700;2023-06-10T14:28:12;20.90;1.00
21849;DHT22;11089;49.852;19.700;2023-06-10T14:31:13;20.90;99.90
21849;DHT22;11089;49.852;19.700;2023-06-10T14:34:14;21.10;1.00
21849;DHT22;11089;49.852;19.700;2023-06-10T14:37:15;21.20;1.00
21849;DHT22;11089;49.852;19.700;2023-06-10T14:40:16;21.10;99.90
21849;DHT22;11089;49.852;19.700;2023-06-10T14:43:17;20.90;99.90
21849;DHT22;11089;49.852;19.700;2023-06-10T14:46:18;20.90;1.00
21849;DHT22;11089;49.852;19.700;2023-06-10T14:49:21;20.90;99.90
21849;DHT22;11089;49.852;19.700;2023-06-10T14:52:22;21.00;99.90
21849;DHT22;11089;49.852;19.700;2023-06-10T14:55:23;21.20;82.20
21849;DHT22;11089;49.852;19.700;2023-06-10T14:58:24;21.20;99.90
21849;DHT22;11089;49.852;19.700;2023-06-10T15:01:25;21.00;1.00
21849;DHT22;11089;49.852;19.700;2023-06-10T15:04:27;21.10;1.00
21849;DHT22;11089;49.852;19.700;2023-06-10T15:07:28;21.10;1.00
21849;DHT22;11089;49.852;19.700;2023-06-10T15:10:29;20.90;1.00
21849;DHT22;11089;49.852;19.700;2023-06-10T15:13:29;20.70;99.90
21849;DHT22;11089;49.852;19.700;2023-06-10T15:16:30;20.40;1.00
21849;DHT22;11089;49.852;19.700;2023-06-10T15:19:31;20.40;99.90
21849;DHT22;11089;49.852;19.700;2023-06-10T15:22:32;20.50;99.90
21849;DHT22;11089;49.852;19.700;2023-06-10T15:25:34;20.60;1.00
21849;DHT22;11089;49.852;19.700;2023-06-10T15:28:35;20.60;1.00
21849;DHT22;11089;49.852;19.700;2023-06-10T15:31:36;20.50;1.00
21849;DHT22;11089;49.852;19.700;2023-06-10T15:34:37;20.60;99.90
21849;DHT22;11089;49.852;19.700;2023-06-10T15:37:39;20.60;1.00
21849;DHT22;11089;49.852;19.700;2023-06-10T15:40:42;20.60;99.90
21849;DHT22;11089;49.852;19.700;2023-06-10T15:43:43;20.60;99.90
21849;DHT22;11089;49.852;19.700;2023-06-10T15:46:44;20.60;1.00
21849;DHT22;11089;49.852;19.700;2023-06-10T15:49:46;20.70;99.90
21849;DHT22;11089;49.852;19.700;2023-06-10T15:52:47;20.70;12.00
21849;DHT22;11089;49.852;19.700;2023-06-10T15:55:48;20.80;99.90
21849;DHT22;11089;49.852;19.700;2023-06-10T15:58:49;20.80;1.00
21849;DHT22;11089;49.852;19.700;2023-06-10T16:01:50;20.80;1.00
21849;DHT22;11089;49.852;19.700;2023-06-10T16:04:51;20.80;1.00
21849;DHT22;11089;49.852;19.700;2023-06-10T16:07:52;20.70;1.00
21849;DHT22;11089;49.852;19.700;2023-06-10T16:10:53;20.60;1.00
21849;DHT22;11089;49.852;19.700;2023-06-10T16:13:53;20.50;99.90
21849;DHT22;11089;49.852;19.700;2023-06-10T16:16:55;20.40;43.40
21849;DHT22;11089;49.852;19.700;2023-06-10T16:19:58;20.40;1.00
21849;DHT22;11089;49.852;19.700;2023-06-10T16:22:59;20.30;1.00
21849;DHT22;11089;49.852;19.700;2023-06-10T16:26:00;20.20;1.00
21849;DHT22;11089;49.852;19.700;2023-06-10T16:29:01;20.10;1.00
21849;DHT22;11089;49.852;19.700;2023-06-10T16:32:02;20.10;1.00
21849;DHT22;11089;49.852;19.700;2023-06-10T16:35:04;20.10;1.00
21849;DHT22;11089;49.852;19.700;2023-06-10T16:38:05;20.10;1.00
21849;DHT22;11089;49.852;19.700;2023-06-10T16:41:06;20.10;1.00
21849;DHT22;11089;49.852;19.700;2023-06-10T16:44:07;20.00;1.00
21849;DHT22;11089;49.852;19.700;2023-06-10T16:47:08;19.90;1.00
21849;DHT22;11089;49.852;19.700;2023-06-10T16:50:09;19.90;1.00
21849;DHT22;11089;49.852;19.700;2023-06-10T16:53:10;19.80;99.90
21849;DHT22;11089;49.852;19.700;2023-06-10T16:56:11;19.80;99.90
21849;DHT22;11089;49.852;19.700;2023-06-10T16:59:12;19.80;99.90
21849;DHT22;11089;49.852;19.700;2023-06-10T17:02:13;19.80;99.90
21849;DHT22;11089;49.852;19.700;2023-06-10T17:05:14;19.70;99.90
21849;DHT22;11089;49.852;19.700;2023-06-10T17:08:15;19.60;1.00
21849;DHT22;11089;49.852;19.700;2023-06-10T17:11:16;19.60;1.00
21849;DHT22;11089;49.852;19.700;2023-06-10T17:14:17;19.50;1.00
21849;DHT22;11089;49.852;19.700;2023-06-10T17:17:18;19.50;28.60
21849;DHT22;11089;49.852;19.700;2023-06-10T17:20:19;19.50;99.90
21849;DHT22;11089;49.852;19.700;2023-06-10T17:23:21;19.40;99.90
21849;DHT22;11089;49.852;19.700;2023-06-10T17:26:22;19.40;99.90
21849;DHT22;11089;49.852;19.700;2023-06-10T17:29:23;19.30;1.00
21849;DHT22;11089;49.852;19.700;2023-06-10T17:32:24;19.30;1.00
21849;DHT22;11089;49.852;19.700;2023-06-10T17:35:25;19.20;1.00
21849;DHT22;11089;49.852;19.700;2023-06-10T17:38:26;19.30;1.00
21849;DHT22;11089;49.852;19.700;2023-06-10T17:41:26;19.10;1.00
21849;DHT22;11089;49.852;19.700;2023-06-10T17:44:27;19.00;1.00
21849;DHT22;11089;49.852;19.700;2023-06-10T17:47:29;19.00;1.00
21849;DHT22;11089;49.852;19.700;2023-06-10T17:50:30;18.80;1.00
21849;DHT22;11089;49.852;19.700;2023-06-10T17:53:31;18.80;1.00
21849;DHT22;11089;49.852;19.700;2023-06-10T17:56:32;18.70;1.00
21849;DHT22;11089;49.852;19.700;2023-06-10T17:59:33;18.70;1.00
21849;DHT22;11089;49.852;19.700;2023-06-10T18:02:34;18.60;1.00
21849;DHT22;11089;49.852;19.700;2023-06-10T18:05:35;18.60;1.00
21849;DHT22;11089;49.852;19.700;2023-06-10T18:08:36;18.50;1.00
21849;DHT22;11089;49.852;19.700;2023-06-10T18:11:37;18.40;1.00
21849;DHT22;11089;49.852;19.700;2023-06-10T18:14:38;18.40;1.00
21849;DHT22;11089;49.852;19.700;2023-06-10T18:17:39;18.30;99.90
21849;DHT22;11089;49.852;19.700;2023-06-10T18:20:40;18.20;99.90
21849;DHT22;11089;49.852;19.700;2023-06-10T18:23:41;18.10;99.90
21849;DHT22;11089;49.852;19.700;2023-06-10T18:26:42;18.10;1.00
21849;DHT22;11089;49.852;19.700;2023-06-10T18:29:43;18.10;1.00
21849;DHT22;11089;49.852;19.700;2023-06-10T18:32:44;18.10;1.00
21849;DHT22;11089;49.852;19.700;2023-06-10T18:35:45;17.90;6.60
21849;DHT22;11089;49.852;19.700;2023-06-10T18:38:46;17.90;1.00
21849;DHT22;11089;49.852;19.700;2023-06-10T18:41:47;17.90;1.00
21849;DHT22;11089;49.852;19.700;2023-06-10T18:44:48;18.00;1.00
21849;DHT22;11089;49.852;19.700;2023-06-10T18:47:49;17.90;99.90
21849;DHT22;11089;49.852;19.700;2023-06-10T18:50:50;17.80;99.90
21849;DHT22;11089;49.852;19.700;2023-06-10T18:53:51;17.80;99.90
21849;DHT22;11089;49.852;19.700;2023-06-10T18:56:52;17.80;99.90
21849;DHT22;11089;49.852;19.700;2023-06-10T18:59:53;17.80;1.00
21849;DHT22;11089;49.852;19.700;2023-06-10T19:02:54;17.60;1.00
21849;DHT22;11089;49.852;19.700;2023-06-10T19:05:55;17.60;1.00
21849;DHT22;11089;49.852;19.700;2023-06-10T19:08:57;17.60;1.00
21849;DHT22;11089;49.852;19.700;2023-06-10T19:11:58;17.60;1.00